Stations météo

Publicité
Großer Arber, Allemagne (10791): Température de l'air & dewpoint: 16.09.2018 16:00:00 - 22.09.2018 16:00:00 (CEST)Großer Arber, Allemagne (10791): Vitesse du vent & gusts: 16.09.2018 16:00:00 - 22.09.2018 16:00:00 (CEST)Großer Arber, Allemagne (10791): Direction du vent: 16.09.2018 16:00:00 - 22.09.2018 16:00:00 (CEST)Großer Arber, Allemagne (10791): visibility: 16.09.2018 16:00:00 - 22.09.2018 16:00:00 (CEST)Großer Arber, Allemagne (10791): Ensoleillement: 16.09.2018 16:00:00 - 22.09.2018 16:00:00 (CEST)Großer Arber, Allemagne (10791): Quantités de précipitations: 16.09.2018 16:00:00 - 22.09.2018 16:00:00 (CEST)
Date & Time tt [°C] td [°C] ff [km/h] ff [knt] fx [km/h] fx [knt] dd vv [km] sd [min] rr [mm]
22.09.2018 16:00:00 6,0 2,0 20 11 31 17 WSW 54 27 0,0
22.09.2018 15:00:00 5,4 2,4 17 9 34 18 WSW 52 20 0,0
22.09.2018 14:00:00 5,7 2,9 22 12 36 19 WSW 58 14 0,0
22.09.2018 13:00:00 4,3 2,0 23 13 39 21 SW 53 3 0,0
22.09.2018 12:00:00 4,2 3,0 23 12 43 23 WSW 43 21 0,0
22.09.2018 11:00:00 3,4 2,6 32 18 48 26 WSW 53 24 0,0
22.09.2018 10:00:00 2,7 2,5 38 20 59 32 WSW 18 3 0,0
22.09.2018 09:00:00 2,7 2,7 39 21 59 32 WSW 0,1 0 0,0
22.09.2018 08:00:00 2,8 2,8 42 23 59 32 WSW 0,1 0 0,0
22.09.2018 07:00:00 2,6 2,6 43 23 56 30 WSW 0,1 0 0,0
22.09.2018 06:00:00 2,6 2,6 42 23 61 33 W 1,3 0 0,0
22.09.2018 05:00:00 3,2 3,2 43 23 65 35 W 0,1 0 0,0
22.09.2018 04:00:00 3,7 3,7 37 20 61 33 W 0,1 0 0,0
22.09.2018 03:00:00 3,3 3,2 34 18 64 35 W 0,9 0 0,0
22.09.2018 02:00:00 3,4 3,3 39 21 65 35 WNW 0,3 0 0,0
22.09.2018 01:00:00 4,2 4,2 31 17 65 35 NW 0,1 0 0,0
22.09.2018 00:00:00 4,9 4,9 40 22 72 39 NW 0,1 0 0,8
21.09.2018 23:00:00 5,5 5,5 56 31 87 47 WNW 0,2 0 0,8
21.09.2018 22:00:00 9,0 9,0 51 27 82 44 WNW 0,1 0 0,2
21.09.2018 21:00:00 12,2 9,3 56 30 90 48 W 53 0 0,0
21.09.2018 20:00:00 14,0 8,9 60 32 85 46 WSW 62 0 0,0
21.09.2018 19:00:00 16,2 10,1 30 16 49 26 SW 51 0 0,0
21.09.2018 18:00:00 16,1 11,5 23 13 39 21 S 45 0 0,0
21.09.2018 17:00:00 16,2 10,4 18 10 36 19 S 53 44 0,0
21.09.2018 16:00:00 16,6 9,8 30 16 46 25 SW 45 55 0,0
21.09.2018 15:00:00 17,3 10,6 24 13 49 26 SSW 40 56 0,0
21.09.2018 14:00:00 18,0 10,6 30 16 50 27 SW 44 60 0,0
21.09.2018 13:00:00 17,3 10,9 27 15 40 22 SW 52 60 0,0
21.09.2018 12:00:00 16,4 10,6 18 10 36 19 SSW 75 60 0,0
21.09.2018 11:00:00 16,1 8,8 23 13 32 17 SW 74 60 0,0
21.09.2018 10:00:00 15,1 8,7 20 11 32 17 S 57 60 0,0
21.09.2018 09:00:00 15,3 8,2 21 12 33 18 S 61 60 0,0
21.09.2018 08:00:00 14,2 8,0 24 13 35 19 S 60 31 0,0
21.09.2018 07:00:00 13,2 8,5 29 16 37 20 S 75 0 0,0
21.09.2018 06:00:00 13,4 9,3 29 16 39 21 S 62 0 0,0
21.09.2018 05:00:00 14,5 4,5 32 17 41 22 SSE 75 0 0,0
21.09.2018 04:00:00 14,0 6,4 27 15 35 19 SSE 68 0 0,0
21.09.2018 03:00:00 13,7 7,7 25 14 34 18 SSE 68 0 0,0
21.09.2018 02:00:00 13,9 8,6 25 14 34 18 SSE 56 0 0,0
21.09.2018 01:00:00 14,3 5,8 24 13 29 16 SSE 75 0 0,0
21.09.2018 00:00:00 14,4 3,8 17 9 22 12 SSE 65 0 0,0
20.09.2018 23:00:00 14,7 3,8 11 6 15 8 S 75 0 0,0
20.09.2018 22:00:00 15,3 3,6 11 6 15 8 S 75 0 0,0
20.09.2018 21:00:00 15,4 3,8 13 7 14 8 S 75 0 0,0
20.09.2018 20:00:00 14,7 9,5 11 6 13 7 S 45 11 0,0
20.09.2018 19:00:00 15,3 9,8 10 5 19 10 SSW 55 60 0,0
20.09.2018 18:00:00 16,8 10,1 13 7 24 13 SSW 51 60 0,0
20.09.2018 17:00:00 17,8 9,4 14 7 22 12 SSW 36 60 0,0
20.09.2018 16:00:00 18,3 9,5 15 8 23 12 SSW 59 60 0,0
20.09.2018 15:00:00 18,3 9,2 14 8 26 14 SSW 66 60 0,0
20.09.2018 14:00:00 18,4 11,0 9 5 18 10 SSW 26 57 0,0
20.09.2018 13:00:00 18,7 11,4 6 3 13 7 S 55 60 0,0
20.09.2018 12:00:00 18,6 11,3 5 3 14 8 S 63 60 0,0
20.09.2018 11:00:00 17,2 8,2 9 5 14 8 SSE 51 60 0,0
20.09.2018 10:00:00 16,9 8,6 4 2 8 4 W 73 60 0,0
20.09.2018 09:00:00 16,8 7,0 3 2 9 5 NNE 66 60 0,0
20.09.2018 08:00:00 14,6 6,7 7 4 12 7 N 75 32 0,0
20.09.2018 07:00:00 13,9 5,9 12 6 13 7 NNW 68 0 0,0
20.09.2018 06:00:00 14,0 5,9 10 6 13 7 NW 75 0 0,0
20.09.2018 05:00:00 14,0 5,7 7 4 11 6 WNW 75 0 0,0
20.09.2018 04:00:00 13,4 5,8 6 3 9 5 W 74 0 0,0
20.09.2018 03:00:00 14,3 6,3 5 3 11 6 WSW 72 0 0,0
20.09.2018 02:00:00 13,6 5,8 8 5 12 7 WSW 75 0 0,0
20.09.2018 01:00:00 13,4 7,2 11 6 13 7 SW 75 0 0,0
20.09.2018 00:00:00 13,8 6,0 11 6 13 7 WSW 75 0 0,0
19.09.2018 23:00:00 14,3 6,0 6 3 11 6 WSW 70 0 0,0
19.09.2018 22:00:00 13,6 6,3 9 5 14 8 WSW 75 0 0,0
19.09.2018 21:00:00 13,9 6,5 11 6 13 7 WSW 75 0 0,0
19.09.2018 20:00:00 14,6 6,4 5 3 8 5 SW 75 8 0,0
19.09.2018 19:00:00 14,8 7,6 7 4 11 6 NW 75 60 0,0
19.09.2018 18:00:00 15,6 9,5 7 4 14 8 SW 75 60 0,0
19.09.2018 17:00:00 16,2 9,6 9 5 16 9 W 68 60 0,0
19.09.2018 16:00:00 16,1 9,4 10 5 15 8 SW 63 49 0,0
19.09.2018 15:00:00 14,6 9,2 9 5 17 9 WSW 53 0 0,0
19.09.2018 14:00:00 13,3 8,9 10 6 17 9 W 62 0 0,0
19.09.2018 13:00:00 13,3 10,2 9 5 21 11 W 62 0 0,0
19.09.2018 12:00:00 13,4 8,0 11 6 23 12 W 38 0 0,0
19.09.2018 11:00:00 13,2 8,4 19 10 28 15 W 29 0 0,0
19.09.2018 10:00:00 12,4 9,4 19 10 31 17 W 70 0 0,0
19.09.2018 09:00:00 11,8 9,8 21 12 31 17 WSW 42 0 0,2
19.09.2018 08:00:00 11,7 8,9 15 8 36 20 WSW 12 0 1,8
19.09.2018 07:00:00 10,9 9,6 17 9 39 21 SW 14 0 0,4
19.09.2018 06:00:00 11,2 9,0 20 11 26 14 SW 61 0 0,0
19.09.2018 05:00:00 11,4 8,9 18 10 37 20 SW 65 0 0,0
19.09.2018 04:00:00 10,3 9,7 31 17 37 20 SW 0,7 0 0,0
19.09.2018 03:00:00 10,0 9,9 24 13 32 17 SSW 0,1 0 0,0
19.09.2018 02:00:00 12,2 10,9 26 14 32 17 SW 21 0 0,0
19.09.2018 01:00:00 12,7 11,7 22 12 29 16 SSW 11 0 0,0
19.09.2018 00:00:00 14,7 11,6 21 12 25 14 SW 19 0 0,0
18.09.2018 23:00:00 15,0 10,1 19 11 22 12 WSW 39 0 0,0
18.09.2018 22:00:00 15,2 8,5 15 8 18 10 WSW 52 0 0,0
18.09.2018 21:00:00 15,0 9,4 13 7 17 9 W 42 0 0,0
18.09.2018 20:00:00 15,0 9,4 13 7 18 10 W 55 17 0,0
18.09.2018 19:00:00 16,5 10,5 11 6 19 10 SW 48 60 0,0
18.09.2018 18:00:00 18,1 11,4 16 9 25 14 SW 38 51 0,0
18.09.2018 17:00:00 18,3 11,1 13 7 26 14 SSW 49 52 0,0
18.09.2018 16:00:00 19,9 10,5 13 7 22 12 SW 64 59 0,0
18.09.2018 15:00:00 19,8 10,9 10 6 23 13 WSW 48 60 0,0
18.09.2018 14:00:00 18,8 11,6 13 7 23 12 SW 42 59 0,0
18.09.2018 13:00:00 18,8 10,5 9 5 15 8 S 53 60 0,0
18.09.2018 12:00:00 18,5 11,8 7 4 15 8 SSW 64 60 0,0
18.09.2018 11:00:00 17,1 10,4 10 5 17 9 S 50 60 0,0
18.09.2018 10:00:00 16,7 12,4 10 5 16 9 S 45 60 0,0
18.09.2018 09:00:00 15,7 11,1 13 7 19 10 S 59 60 0,0
18.09.2018 08:00:00 14,5 11,7 14 8 19 10 S 37 40 0,0
18.09.2018 07:00:00 13,9 11,0 13 7 19 10 S 46 0 0,0
18.09.2018 06:00:00 14,2 7,3 18 10 20 11 S 70 0 0,0
18.09.2018 05:00:00 13,9 7,9 15 8 19 10 S 75 0 0,0
18.09.2018 04:00:00 13,6 6,0 18 10 20 11 S 75 0 0,0
18.09.2018 03:00:00 13,6 7,7 15 8 18 10 S 43 0 0,0
18.09.2018 02:00:00 12,9 10,4 13 7 21 12 S 22 0 0,0
18.09.2018 01:00:00 13,0 10,4 21 11 24 13 S 26 0 0,0
18.09.2018 00:00:00 12,9 9,4 19 10 23 12 S 40 0 0,0
17.09.2018 23:00:00 13,2 9,6 17 9 20 11 S 42 0 0,0
17.09.2018 22:00:00 13,5 9,4 15 8 17 9 S 45 0 0,0
17.09.2018 21:00:00 14,0 8,8 6 3 8 4 SSW 53 0 0,0
17.09.2018 20:00:00 13,9 8,5 3 2 7 4 WNW 55 18 0,0
17.09.2018 19:00:00 15,5 8,3 5 3 9 5 SSW 50 60 0,0
17.09.2018 18:00:00 16,5 8,0 5 3 17 9 S 51 60 0,0
17.09.2018 17:00:00 17,6 7,5 5 3 20 11 SW 47 60 0,0
17.09.2018 16:00:00 17,2 6,9 13 7 28 15 SW 61 60 0,0
17.09.2018 15:00:00 17,4 8,1 11 6 25 13 SSW 69 56 0,0
17.09.2018 14:00:00 16,9 8,9 15 8 27 15 SW 39 60 0,0
17.09.2018 13:00:00 16,2 9,3 12 6 24 13 SW 29 60 0,0
17.09.2018 12:00:00 15,7 8,0 9 5 22 12 SW 46 60 0,0
17.09.2018 11:00:00 14,9 7,1 13 7 18 10 SSW 52 60 0,0
17.09.2018 10:00:00 14,1 8,5 4 2 11 6 W 49 59 0,0
17.09.2018 09:00:00 13,5 5,6 6 3 16 9 NW 67 60 0,0
17.09.2018 08:00:00 11,0 7,5 13 7 20 11 NW 31 38 0,0
17.09.2018 07:00:00 10,5 7,9 16 9 23 12 NW 24 0 0,0
17.09.2018 06:00:00 10,5 9,8 14 8 23 13 W 5 0 0,0
17.09.2018 05:00:00 10,6 10,1 11 6 26 14 WSW 4,2 0 0,0
17.09.2018 04:00:00 10,6 9,7 19 10 24 13 SW 8 0 0,0
17.09.2018 03:00:00 10,1 8,2 16 9 22 12 SSW 21 0 0,0
17.09.2018 02:00:00 10,7 7,6 14 7 29 15 SW 34 0 0,0
17.09.2018 01:00:00 10,9 8,3 23 12 32 18 SW 31 0 0,0
17.09.2018 00:00:00 11,2 7,3 20 11 28 15 SSW 42 0 0,0
16.09.2018 23:00:00 11,7 6,7 17 9 22 12 SSW 48 0 0,0
16.09.2018 22:00:00 12,2 5,8 19 10 23 12 S 68 0 0,0
16.09.2018 21:00:00 11,2 6,0 17 9 20 11 S 54 0 0,0
16.09.2018 20:00:00 11,9 5,1 16 9 18 10 S 44 0 0,0
16.09.2018 19:00:00 12,4 4,6 8 4 14 7 S 20 30 0,0
16.09.2018 18:00:00 14,3 4,2 8 4 16 9 S 64 60 0,0
16.09.2018 17:00:00 14,7 3,0 8 5 21 12 S 69 60 0,0
16.09.2018 16:00:00 15,1 2,9 8 5 21 11 SSE 58 60 0,0

tt = Température de l'air
td = dewpoint
ff = Vitesse du vent
fx = gusts
dd = Direction du vent
vv = visibility
sd = Ensoleillement
rr = Quantités de précipitations

stations d'obs. à proximité